Time;durP1;ratioP1;P1;durP2;ratioP2;P2;SDS_P1;SDS_P2;PMS_P1;PMS_P2;Temp;Humidity;BMP_temperature;BMP_pressure;BME280_temperature;BME280_humidity;BME280_pressure;Samples;Min_cycle;Max_cycle;Signal;HPM_P1;HPM_P2
2022/10/05 00:02:21;;;;;;;5.70;2.50;;;18.30;92.10;;;;;;5054001;28;20086;-67
2022/10/05 00:04:50;;;;;;;10.40;2.75;;;18.20;92.10;;;;;;5054737;28;20037;-67
2022/10/05 00:07:18;;;;;;;3.85;2.05;;;18.20;92.20;;;;;;5054421;28;20439;-67
2022/10/05 00:09:58;;;;;;;8.85;2.50;;;18.20;92.20;;;;;;5054702;28;20472;-67
2022/10/05 00:12:25;;;;;;;5.40;2.97;;;18.20;92.30;;;;;;5055957;28;20032;-67
2022/10/05 00:14:58;;;;;;;6.72;2.63;;;18.20;92.40;;;;;;5054151;28;20033;-67
2022/10/05 00:17:26;;;;;;;3.63;2.40;;;18.10;92.40;;;;;;5054649;28;20033;-67
2022/10/05 00:19:53;;;;;;;3.97;1.98;;;18.10;92.50;;;;;;5054452;28;20463;-67
2022/10/05 00:22:21;;;;;;;5.00;2.40;;;18.10;92.50;;;;;;5053625;28;20116;-67
2022/10/05 00:24:50;;;;;;;5.85;3.47;;;18.10;92.60;;;;;;5054549;28;20051;-67
2022/10/05 00:27:24;;;;;;;3.35;2.25;;;18.10;92.70;;;;;;5054476;28;20037;-67
2022/10/05 00:29:51;;;;;;;11.30;5.00;;;18.10;93.00;;;;;;5052394;28;20071;-67
2022/10/05 00:32:17;;;;;;;7.60;3.85;;;18.00;92.70;;;;;;5053104;28;20036;-67
2022/10/05 00:34:44;;;;;;;4.63;2.78;;;18.10;92.70;;;;;;5054777;28;20021;-67
2022/10/05 00:37:10;;;;;;;6.05;2.80;;;18.10;92.70;;;;;;5053615;28;20106;-67
2022/10/05 00:39:38;;;;;;;7.95;2.53;;;18.10;92.70;;;;;;5053203;28;20033;-67
2022/10/05 00:42:36;;;;;;;10.10;3.42;;;18.10;93.00;;;;;;5052855;28;20032;-67
2022/10/05 00:45:04;;;;;;;4.00;2.38;;;18.10;92.70;;;;;;5054675;28;20439;-67
2022/10/05 00:47:56;;;;;;;7.68;3.83;;;18.10;92.70;;;;;;5054554;28;20044;-67
2022/10/05 00:50:58;;;;;;;4.30;2.88;;;18.10;92.80;;;;;;5053221;28;20078;-67
2022/10/05 00:53:49;;;;;;;7.70;3.90;;;18.00;92.80;;;;;;5048271;28;20099;-67
2022/10/05 00:56:39;;;;;;;5.90;3.35;;;18.10;92.80;;;;;;5054333;28;20553;-67
2022/10/05 00:59:23;;;;;;;11.45;3.72;;;18.10;92.80;;;;;;5055296;28;20032;-67
2022/10/05 01:02:25;;;;;;;2.85;1.27;;;18.10;92.90;;;;;;5052626;28;20379;-67
2022/10/05 01:05:18;;;;;;;6.30;3.17;;;18.00;92.80;;;;;;5053094;28;20036;-67
2022/10/05 01:07:55;;;;;;;6.75;3.60;;;18.10;92.80;;;;;;5052516;28;20029;-67
2022/10/05 01:10:52;;;;;;;3.20;2.05;;;18.00;92.90;;;;;;5052260;28;20036;-67
2022/10/05 01:13:31;;;;;;;4.45;2.40;;;18.00;92.90;;;;;;5053599;28;20434;-67
2022/10/05 01:16:04;;;;;;;4.13;2.30;;;18.10;92.90;;;;;;5052379;28;20435;-67
2022/10/05 01:18:55;;;;;;;8.57;2.58;;;18.00;92.80;;;;;;5051516;28;20060;-67
2022/10/05 01:21:26;;;;;;;3.13;1.50;;;18.00;92.80;;;;;;5053910;28;20090;-67
2022/10/05 01:24:24;;;;;;;3.92;2.00;;;18.00;92.80;;;;;;5052123;28;20029;-67
2022/10/05 01:27:17;;;;;;;4.63;1.90;;;18.00;92.90;;;;;;5053331;28;20104;-67
2022/10/05 01:29:55;;;;;;;4.05;2.38;;;18.00;92.80;;;;;;5053532;28;20033;-67
2022/10/05 01:32:24;;;;;;;4.63;1.83;;;17.90;92.90;;;;;;5051309;28;20032;-67
2022/10/05 01:35:23;;;;;;;1.27;1.17;;;17.90;92.90;;;;;;5052122;28;20119;-67
2022/10/05 01:38:12;;;;;;;1.10;1.00;;;17.90;93.00;;;;;;5053313;28;20033;-67
2022/10/05 01:40:59;;;;;;;2.05;1.58;;;17.90;93.00;;;;;;5051321;28;20029;-67
2022/10/05 01:43:40;;;;;;;1.83;1.05;;;17.90;93.00;;;;;;5052837;28;20048;-67
2022/10/05 01:46:19;;;;;;;1.88;1.30;;;17.90;93.10;;;;;;5052663;28;20124;-67
2022/10/05 01:49:03;;;;;;;1.55;1.05;;;17.80;93.10;;;;;;5053462;28;20033;-67
2022/10/05 01:52:05;;;;;;;3.85;1.88;;;17.80;93.10;;;;;;5051898;28;20082;-68
2022/10/05 01:54:43;;;;;;;2.97;2.10;;;17.80;93.20;;;;;;5050906;28;20044;-67
2022/10/05 01:57:36;;;;;;;2.40;1.40;;;17.80;93.20;;;;;;5051921;28;20533;-67
2022/10/05 02:00:10;;;;;;;5.00;1.70;;;17.80;93.30;;;;;;5052487;28;20029;-67
2022/10/05 02:03:00;;;;;;;4.20;1.88;;;17.70;93.50;;;;;;5053315;28;20036;-67
2022/10/05 02:05:33;;;;;;;4.78;1.52;;;17.70;93.30;;;;;;5051847;28;20484;-67
2022/10/05 02:08:07;;;;;;;3.67;1.90;;;17.80;93.40;;;;;;5051114;28;20079;-67
2022/10/05 02:10:37;;;;;;;1.85;1.13;;;17.70;93.40;;;;;;5051733;28;20033;-67
2022/10/05 02:13:29;;;;;;;4.32;2.17;;;17.80;93.40;;;;;;5051753;28;20055;-67
2022/10/05 02:16:24;;;;;;;2.08;1.45;;;17.70;93.40;;;;;;5051052;28;20483;-67
2022/10/05 02:18:59;;;;;;;1.92;1.48;;;17.80;93.50;;;;;;5053744;28;20033;-67
2022/10/05 02:21:26;;;;;;;2.60;1.92;;;17.70;93.50;;;;;;5056278;28;20048;-67
2022/10/05 02:23:56;;;;;;;3.22;1.42;;;17.70;93.80;;;;;;5056821;28;20044;-67
2022/10/05 02:26:23;;;;;;;1.80;1.40;;;17.70;93.60;;;;;;5055464;28;20116;-67
2022/10/05 02:28:55;;;;;;;11.27;2.42;;;17.70;93.60;;;;;;5055945;28;20016;-67
2022/10/05 02:31:40;;;;;;;3.45;1.95;;;17.70;93.70;;;;;;5056602;28;20477;-67
2022/10/05 02:34:24;;;;;;;4.88;2.15;;;17.70;93.70;;;;;;5055322;28;20024;-67
2022/10/05 02:37:24;;;;;;;3.42;2.35;;;17.70;93.70;;;;;;5054524;28;20061;-67
2022/10/05 02:40:09;;;;;;;3.53;2.22;;;17.70;93.70;;;;;;5038289;28;20120;-67
2022/10/05 02:42:59;;;;;;;4.93;1.63;;;17.70;93.80;;;;;;5054410;28;20074;-67
2022/10/05 02:45:43;;;;;;;3.40;2.22;;;17.70;93.80;;;;;;5055007;28;20454;-67
2022/10/05 02:48:30;;;;;;;5.00;2.55;;;17.70;93.80;;;;;;5054924;28;20033;-67
2022/10/05 02:51:14;;;;;;;1.20;1.10;;;17.70;93.90;;;;;;5055536;28;20025;-67
2022/10/05 02:53:59;;;;;;;;;;;17.60;93.80;;;;;;5056630;28;20411;-67
2022/10/05 02:56:48;;;;;;;2.97;1.67;;;17.60;93.80;;;;;;5054121;28;20282;-67
2022/10/05 02:59:38;;;;;;;1.52;1.27;;;17.60;93.90;;;;;;5054840;28;20479;-67
2022/10/05 03:02:40;;;;;;;1.58;1.40;;;17.60;93.90;;;;;;5054879;28;20102;-67
2022/10/05 03:05:06;;;;;;;2.67;1.83;;;17.60;94.00;;;;;;5053884;28;20041;-67
2022/10/05 03:07:44;;;;;;;2.35;1.45;;;17.60;94.00;;;;;;5054596;28;20029;-67
2022/10/05 03:10:22;;;;;;;2.05;1.42;;;17.60;94.10;;;;;;5055235;28;20071;-67
2022/10/05 03:12:54;;;;;;;2.58;1.88;;;17.60;93.90;;;;;;5054530;28;20048;-67
2022/10/05 03:15:52;;;;;;;4.25;2.10;;;17.70;93.90;;;;;;5054605;28;20537;-67
2022/10/05 03:18:47;;;;;;;1.02;0.82;;;17.70;93.90;;;;;;5053832;28;20219;-67
2022/10/05 03:21:25;;;;;;;;;;;17.70;93.80;;;;;;5054975;28;20053;-67
2022/10/05 03:24:12;;;;;;;11.18;3.17;;;17.70;93.80;;;;;;5055584;28;19913;-67
2022/10/05 03:26:42;;;;;;;1.83;1.67;;;17.70;93.90;;;;;;5054398;28;20111;-67
2022/10/05 03:29:30;;;;;;;3.08;2.30;;;17.70;93.80;;;;;;5054548;28;20053;-67
2022/10/05 03:32:27;;;;;;;2.10;1.27;;;17.70;93.80;;;;;;5053490;28;20107;-67
2022/10/05 03:35:16;;;;;;;4.90;1.65;;;17.70;93.80;;;;;;5054100;28;20057;-67
2022/10/05 03:37:45;;;;;;;3.80;1.90;;;17.70;93.90;;;;;;5054126;28;20031;-67
2022/10/05 03:40:26;;;;;;;2.08;1.40;;;17.70;93.90;;;;;;5054420;28;20450;-67
2022/10/05 03:43:48;;;;;;;3.17;1.67;;;17.70;93.90;;;;;;5053983;28;20032;-67
2022/10/05 03:46:51;;;;;;;3.42;2.25;;;17.70;93.90;;;;;;5029422;28;20045;-67
2022/10/05 03:49:52;;;;;;;2.35;1.40;;;17.60;93.90;;;;;;5039472;28;20037;-67
2022/10/05 03:52:28;;;;;;;3.17;1.77;;;17.60;93.90;;;;;;5054344;28;20078;-67
2022/10/05 03:55:04;;;;;;;0.77;0.57;;;17.60;94.00;;;;;;5053657;28;20041;-67
2022/10/05 03:57:37;;;;;;;2.45;1.38;;;17.60;94.30;;;;;;5053641;28;20021;-67
2022/10/05 04:00:13;;;;;;;3.33;1.85;;;17.60;94.10;;;;;;5052996;28;20078;-67
2022/10/05 04:03:29;;;;;;;3.22;2.15;;;17.60;94.00;;;;;;5054804;28;20029;-67
2022/10/05 04:06:15;;;;;;;2.42;2.03;;;17.60;94.00;;;;;;5053429;28;20047;-67
2022/10/05 04:08:50;;;;;;;5.03;2.10;;;17.60;94.00;;;;;;5053590;28;20120;-67
2022/10/05 04:11:36;;;;;;;4.63;2.00;;;17.60;94.00;;;;;;5053506;28;20071;-67
2022/10/05 04:14:11;;;;;;;7.50;2.65;;;17.60;94.00;;;;;;5052677;28;20025;-67
2022/10/05 04:16:43;;;;;;;2.55;1.55;;;17.60;94.00;;;;;;5053444;28;20044;-67
2022/10/05 04:19:20;;;;;;;5.43;0.73;;;17.60;94.00;;;;;;5053330;28;20029;-67
2022/10/05 04:22:04;;;;;;;4.07;1.38;;;17.60;94.00;;;;;;5052493;28;20033;-67
2022/10/05 04:24:43;;;;;;;4.28;2.00;;;17.60;93.90;;;;;;5053169;28;20037;-67
2022/10/05 04:27:30;;;;;;;1.65;1.15;;;17.60;93.90;;;;;;5053104;28;20074;-67
2022/10/05 04:30:08;;;;;;;1.20;1.10;;;17.60;93.90;;;;;;5054549;28;20435;-67
2022/10/05 04:32:56;;;;;;;1.38;1.17;;;17.60;93.90;;;;;;5053254;28;20025;-67
2022/10/05 04:35:56;;;;;;;3.35;1.45;;;17.60;93.90;;;;;;5052325;28;20046;-67
2022/10/05 04:38:50;;;;;;;1.48;1.05;;;17.60;93.90;;;;;;5052972;28;20033;-67
2022/10/05 04:41:34;;;;;;;;;;;17.60;93.90;;;;;;5053065;28;20036;-67
2022/10/05 04:44:06;;;;;;;;;;;17.60;93.80;;;;;;5053243;28;19909;-67
2022/10/05 04:47:10;;;;;;;1.90;1.38;;;17.50;93.80;;;;;;5052647;28;19909;-67
2022/10/05 04:49:43;;;;;;;4.18;1.85;;;17.60;93.90;;;;;;5051008;28;20464;-67
2022/10/05 04:52:33;;;;;;;2.83;1.90;;;17.50;93.90;;;;;;5052832;28;20138;-67
2022/10/05 04:55:24;;;;;;;2.00;1.67;;;17.50;94.20;;;;;;5052388;28;20483;-67
2022/10/05 04:58:05;;;;;;;5.22;2.60;;;17.50;94.00;;;;;;5052506;28;20032;-67
2022/10/05 05:00:44;;;;;;;2.65;1.73;;;17.50;94.00;;;;;;5052673;28;20037;-67
2022/10/05 05:03:34;;;;;;;3.17;1.40;;;17.50;94.00;;;;;;5051778;28;20039;-67
2022/10/05 05:06:06;;;;;;;5.85;1.52;;;17.60;94.00;;;;;;5052505;28;20088;-67
2022/10/05 05:09:05;;;;;;;2.25;1.67;;;17.50;93.90;;;;;;5052489;28;20029;-67
2022/10/05 05:11:41;;;;;;;5.80;2.30;;;17.50;93.90;;;;;;5051880;28;20029;-67
2022/10/05 05:14:20;;;;;;;5.07;3.17;;;17.50;93.90;;;;;;5052297;28;20029;-67
2022/10/05 05:17:00;;;;;;;1.92;1.55;;;17.50;93.90;;;;;;5051725;28;20037;-67
2022/10/05 05:19:40;;;;;;;2.63;1.75;;;17.50;93.90;;;;;;5053717;28;20037;-67
2022/10/05 05:22:26;;;;;;;2.22;1.73;;;17.60;93.90;;;;;;5052305;28;20050;-67
2022/10/05 05:25:17;;;;;;;11.32;3.20;;;17.50;93.90;;;;;;5051460;28;20391;-67
2022/10/05 05:28:13;;;;;;;1.60;1.50;;;17.50;94.00;;;;;;5052209;28;20025;-67
2022/10/05 05:30:49;;;;;;;13.30;2.28;;;17.50;93.90;;;;;;5052528;28;20025;-67
2022/10/05 05:33:33;;;;;;;8.88;2.40;;;17.50;94.00;;;;;;5052063;28;20025;-67
2022/10/05 05:36:29;;;;;;;8.65;2.70;;;17.50;94.00;;;;;;5053411;28;20036;-67
2022/10/05 05:39:16;;;;;;;5.93;1.77;;;17.40;94.00;;;;;;5051198;28;20021;-67
2022/10/05 05:41:59;;;;;;;3.78;2.33;;;17.40;94.00;;;;;;5052112;28;20071;-67
2022/10/05 05:44:45;;;;;;;8.70;2.85;;;17.50;94.00;;;;;;5051982;28;20056;-67
2022/10/05 05:47:34;;;;;;;3.35;2.45;;;17.40;94.00;;;;;;5052030;28;20025;-67
2022/10/05 05:50:31;;;;;;;3.33;1.73;;;17.40;94.10;;;;;;5051958;28;20129;-67
2022/10/05 05:53:24;;;;;;;4.88;2.38;;;17.40;94.10;;;;;;5042121;28;20131;-67
2022/10/05 05:55:58;;;;;;;2.45;1.65;;;17.40;94.10;;;;;;5050798;28;20041;-67
2022/10/05 05:58:36;;;;;;;5.18;2.22;;;17.30;94.10;;;;;;5056006;28;20024;-67
2022/10/05 06:01:29;;;;;;;3.95;2.20;;;17.30;94.20;;;;;;5056544;28;20098;-67
2022/10/05 06:04:02;;;;;;;;;;;17.40;94.20;;;;;;5038722;28;20069;-67
2022/10/05 06:06:36;;;;;;;4.55;2.28;;;17.30;94.10;;;;;;5056353;28;20384;-67
2022/10/05 06:09:12;;;;;;;15.95;3.28;;;17.40;94.20;;;;;;5055716;28;20025;-67
2022/10/05 06:11:45;;;;;;;4.40;2.05;;;17.40;94.20;;;;;;5057097;28;20025;-67
2022/10/05 06:14:23;;;;;;;4.40;1.52;;;17.40;94.10;;;;;;5054827;28;20365;-67
2022/10/05 06:16:55;;;;;;;3.35;2.00;;;17.40;94.10;;;;;;5055611;28;20411;-67
2022/10/05 06:19:23;;;;;;;5.57;2.47;;;17.40;94.10;;;;;;5056803;28;20040;-67
2022/10/05 06:21:54;;;;;;;3.63;1.90;;;17.40;94.10;;;;;;5054734;28;20025;-67
2022/10/05 06:24:39;;;;;;;2.63;1.60;;;17.40;94.10;;;;;;5055113;28;20578;-67
2022/10/05 06:27:17;;;;;;;5.70;2.28;;;17.30;94.10;;;;;;5054574;28;20372;-67
2022/10/05 06:30:09;;;;;;;2.38;1.60;;;17.30;94.10;;;;;;5055327;28;20024;-67
2022/10/05 06:32:53;;;;;;;4.28;2.70;;;17.30;94.10;;;;;;5055352;28;20037;-67
2022/10/05 06:35:49;;;;;;;5.35;1.70;;;17.40;94.10;;;;;;5054429;28;20036;-67
2022/10/05 06:38:51;;;;;;;12.70;1.67;;;17.30;94.10;;;;;;5055231;28;20028;-67
2022/10/05 06:41:59;;;;;;;4.07;2.00;;;17.30;94.10;;;;;;5054507;28;20471;-67
2022/10/05 06:44:52;;;;;;;4.00;2.25;;;17.40;94.10;;;;;;5055980;28;20048;-67
2022/10/05 06:47:55;;;;;;;6.43;2.55;;;17.40;94.10;;;;;;5050742;28;20071;-67
2022/10/05 06:50:44;;;;;;;3.83;1.98;;;17.30;94.10;;;;;;5055364;28;20033;-67
2022/10/05 06:54:03;;;;;;;5.25;1.70;;;17.40;94.10;;;;;;5054970;28;20025;-67
2022/10/05 06:56:54;;;;;;;5.25;2.25;;;17.40;94.10;;;;;;5054008;28;20434;-67
2022/10/05 06:59:34;;;;;;;3.05;1.73;;;17.30;94.10;;;;;;5056230;28;20124;-67
2022/10/05 07:02:36;;;;;;;3.75;2.67;;;17.40;94.10;;;;;;5055996;28;20534;-67
2022/10/05 07:05:31;;;;;;;7.38;3.38;;;17.40;94.10;;;;;;5054579;28;20033;-67
2022/10/05 07:08:10;;;;;;;9.70;1.95;;;17.40;94.10;;;;;;5055010;28;20024;-67
2022/10/05 07:10:51;;;;;;;4.32;2.25;;;17.40;94.10;;;;;;5049339;28;20464;-67
2022/10/05 07:13:51;;;;;;;0.57;0.57;;;17.40;94.10;;;;;;5055746;28;20029;-66
2022/10/05 07:16:35;;;;;;;12.60;3.40;;;17.40;94.10;;;;;;5034215;28;20036;-67
2022/10/05 07:19:18;;;;;;;;;;;17.40;94.00;;;;;;5052935;28;20060;-66
2022/10/05 07:22:01;;;;;;;4.38;2.15;;;17.50;94.00;;;;;;5052983;28;19909;-67
2022/10/05 07:24:47;;;;;;;2.75;1.65;;;17.40;94.00;;;;;;5052202;28;20025;-67
2022/10/05 07:27:22;;;;;;;3.78;2.83;;;17.40;94.00;;;;;;5052790;28;20058;-67
2022/10/05 07:30:10;;;;;;;3.30;2.05;;;17.40;94.10;;;;;;5053998;28;20112;-67
2022/10/05 07:33:11;;;;;;;2.70;1.50;;;17.40;94.10;;;;;;5054163;28;20423;-68
2022/10/05 07:38:57;;;;;;;2.90;1.73;;;17.40;94.10;;;;;;5053627;28;20040;-68
2022/10/05 07:41:46;;;;;;;4.13;1.88;;;17.40;94.10;;;;;;5055806;28;20365;-68
2022/10/05 07:44:46;;;;;;;2.20;1.58;;;17.40;94.10;;;;;;5055399;28;20037;-68
2022/10/05 07:47:17;;;;;;;4.45;1.83;;;17.40;94.10;;;;;;5046496;28;20128;-68
2022/10/05 07:50:10;;;;;;;4.40;1.77;;;17.40;94.00;;;;;;5053913;28;20486;-68
2022/10/05 07:52:44;;;;;;;3.30;1.98;;;17.50;94.00;;;;;;5053007;28;20115;-68
2022/10/05 07:55:21;;;;;;;3.22;1.75;;;17.50;94.00;;;;;;5053788;28;20472;-68
2022/10/05 07:57:56;;;;;;;1.70;1.58;;;17.50;94.00;;;;;;5054167;28;20036;-68
2022/10/05 08:00:38;;;;;;;14.90;1.75;;;17.50;94.00;;;;;;5053337;28;20033;-68
2022/10/05 08:03:12;;;;;;;3.47;1.83;;;17.50;94.00;;;;;;5053538;28;20033;-68
2022/10/05 08:05:41;;;;;;;4.45;1.70;;;17.50;94.00;;;;;;5054062;28;20049;-68
2022/10/05 08:08:10;;;;;;;4.15;1.73;;;17.50;94.00;;;;;;5054987;28;20037;-68
2022/10/05 08:10:43;;;;;;;5.82;2.00;;;17.50;94.00;;;;;;5054665;28;20108;-68
2022/10/05 08:13:14;;;;;;;0.80;0.80;;;17.50;94.00;;;;;;5054143;28;20480;-68
2022/10/05 08:15:43;;;;;;;3.53;1.23;;;17.50;94.00;;;;;;5055577;28;20041;-68
2022/10/05 08:18:48;;;;;;;7.05;1.90;;;17.50;94.00;;;;;;5055060;28;20036;-68
2022/10/05 08:21:18;;;;;;;2.63;1.50;;;17.60;94.00;;;;;;5055492;28;20078;-68
2022/10/05 08:24:14;;;;;;;4.15;2.35;;;17.50;93.90;;;;;;5056219;28;20123;-68
2022/10/05 08:27:19;;;;;;;9.27;2.47;;;17.60;94.00;;;;;;5054094;28;20029;-68
2022/10/05 08:30:01;;;;;;;1.00;0.93;;;17.60;94.00;;;;;;5055042;28;20036;-68
2022/10/05 08:32:39;;;;;;;1.47;1.00;;;17.70;93.90;;;;;;5055209;28;20032;-68
2022/10/05 08:35:32;;;;;;;0.60;0.60;;;17.60;93.90;;;;;;5054676;28;20449;-68
2022/10/05 08:38:01;;;;;;;1.17;1.08;;;17.70;93.90;;;;;;5055403;28;20033;-68
2022/10/05 08:40:35;;;;;;;2.45;1.58;;;17.70;94.10;;;;;;5054857;28;20113;-68
2022/10/05 08:43:20;;;;;;;2.88;1.42;;;17.70;93.90;;;;;;5054873;28;20036;-68
2022/10/05 08:46:20;;;;;;;2.13;1.27;;;17.70;93.90;;;;;;5054631;28;20041;-68
2022/10/05 08:48:55;;;;;;;1.75;1.40;;;17.70;94.10;;;;;;5054656;28;20037;-68
2022/10/05 08:51:21;;;;;;;1.42;0.95;;;17.70;93.80;;;;;;5055338;28;20029;-68
2022/10/05 08:54:12;;;;;;;3.13;1.88;;;17.70;93.80;;;;;;5056058;28;20472;-68
2022/10/05 08:56:48;;;;;;;1.10;1.00;;;17.80;93.80;;;;;;5053528;28;20072;-68
2022/10/05 08:59:35;;;;;;;5.30;1.27;;;17.80;93.80;;;;;;5053425;28;20037;-68
2022/10/05 09:02:23;;;;;;;4.80;1.20;;;17.80;93.80;;;;;;5052980;28;20468;-68
2022/10/05 09:05:34;;;;;;;2.30;1.50;;;17.80;93.80;;;;;;5053583;28;20080;-68
2022/10/05 09:08:12;;;;;;;5.65;1.20;;;17.90;93.80;;;;;;5053577;28;20041;-68
2022/10/05 09:11:09;;;;;;;1.95;1.35;;;17.80;93.70;;;;;;5053508;28;20036;-68
2022/10/05 09:13:50;;;;;;;1.05;0.95;;;17.90;93.80;;;;;;5054141;28;20040;-68
2022/10/05 09:16:22;;;;;;;1.48;1.27;;;17.90;93.80;;;;;;5052623;28;20533;-68
2022/10/05 09:19:25;;;;;;;1.85;0.98;;;17.90;93.80;;;;;;5053358;28;20044;-68
2022/10/05 09:22:03;;;;;;;3.22;1.60;;;17.90;93.80;;;;;;5053392;28;20476;-68
2022/10/05 09:24:58;;;;;;;2.17;1.65;;;17.90;93.90;;;;;;5052786;28;20037;-68
2022/10/05 09:27:40;;;;;;;1.85;1.15;;;18.00;93.90;;;;;;5053529;28;20451;-68
2022/10/05 09:30:27;;;;;;;6.90;2.05;;;17.90;93.90;;;;;;5053697;28;20060;-67
2022/10/05 09:33:25;;;;;;;2.65;1.40;;;18.00;94.00;;;;;;5053330;28;20107;-68
2022/10/05 09:36:14;;;;;;;2.38;1.33;;;18.00;94.10;;;;;;5053457;28;20479;-68
2022/10/05 09:39:37;;;;;;;3.15;1.48;;;17.90;94.00;;;;;;5052850;28;20466;-68
2022/10/05 09:42:20;;;;;;;1.60;1.02;;;18.00;94.10;;;;;;5031206;28;20444;-68
2022/10/05 09:45:24;;;;;;;1.35;1.20;;;18.00;94.40;;;;;;5030911;28;20552;-68
2022/10/05 09:48:26;;;;;;;3.22;1.70;;;18.00;94.20;;;;;;5043494;28;20494;-68
2022/10/05 09:51:22;;;;;;;3.47;1.45;;;18.10;94.20;;;;;;5052698;28;20025;-68
2022/10/05 09:54:02;;;;;;;1.42;1.33;;;18.10;94.20;;;;;;5034071;28;20128;-69
2022/10/05 09:56:58;;;;;;;4.75;1.60;;;18.10;94.20;;;;;;5052884;28;20146;-68
2022/10/05 09:59:54;;;;;;;1.65;1.08;;;18.10;94.10;;;;;;5052495;28;20037;-68
2022/10/05 10:02:32;;;;;;;4.20;2.13;;;18.10;94.20;;;;;;5053058;28;20430;-68
2022/10/05 10:05:04;;;;;;;8.75;1.98;;;18.20;94.20;;;;;;5052421;28;20047;-68
2022/10/05 10:07:32;;;;;;;5.95;2.17;;;18.10;94.10;;;;;;5052869;28;20033;-68
2022/10/05 10:10:23;;;;;;;3.42;1.67;;;18.20;94.10;;;;;;5052908;28;20021;-68
2022/10/05 10:13:08;;;;;;;2.30;1.52;;;18.10;94.10;;;;;;5052310;28;20045;-68
2022/10/05 10:16:04;;;;;;;2.67;1.40;;;18.20;94.10;;;;;;5053580;28;20496;-68
2022/10/05 10:19:01;;;;;;;3.50;1.90;;;18.20;94.10;;;;;;5053493;28;20037;-68
2022/10/05 10:21:55;;;;;;;4.25;1.73;;;18.10;94.00;;;;;;5052883;28;20047;-69
2022/10/05 10:24:35;;;;;;;3.85;1.60;;;18.10;94.00;;;;;;5052788;28;20033;-69
2022/10/05 10:27:28;;;;;;;1.45;1.02;;;18.20;94.00;;;;;;5052925;28;20052;-71
2022/10/05 10:30:06;;;;;;;5.10;2.15;;;18.20;93.90;;;;;;5053780;28;20040;-71
2022/10/05 10:33:18;;;;;;;9.25;1.40;;;18.20;93.90;;;;;;5052799;28;20033;-71
2022/10/05 10:35:58;;;;;;;2.42;1.60;;;18.30;93.90;;;;;;5042446;28;20059;-71
2022/10/05 10:38:30;;;;;;;4.18;1.88;;;18.30;93.80;;;;;;5053106;28;20079;-71
2022/10/05 10:41:29;;;;;;;2.50;1.88;;;18.30;93.50;;;;;;5055758;28;20024;-68
2022/10/05 10:44:13;;;;;;;3.97;2.08;;;18.30;93.50;;;;;;5056076;28;20123;-68
2022/10/05 10:47:20;;;;;;;3.20;1.73;;;18.30;93.50;;;;;;5036718;28;20069;-69
2022/10/05 10:50:07;;;;;;;4.40;1.90;;;18.20;93.40;;;;;;5036297;28;20061;-69
2022/10/05 10:53:10;;;;;;;5.15;2.00;;;18.30;93.40;;;;;;5036214;28;20037;-69
2022/10/05 10:55:58;;;;;;;2.45;1.60;;;18.30;93.40;;;;;;5035721;28;20057;-71
2022/10/05 10:58:51;;;;;;;2.72;1.60;;;18.30;93.30;;;;;;5055241;28;20115;-70
2022/10/05 11:01:33;;;;;;;1.15;1.08;;;18.20;93.30;;;;;;5055880;28;20049;-70
2022/10/05 11:04:34;;;;;;;2.53;1.85;;;18.30;93.40;;;;;;5055830;28;20028;-70
2022/10/05 11:07:03;;;;;;;2.78;1.88;;;18.30;93.30;;;;;;5055924;28;20068;-70
2022/10/05 11:09:53;;;;;;;2.92;2.25;;;18.40;93.20;;;;;;5055125;28;20479;-70
2022/10/05 11:12:47;;;;;;;4.07;2.15;;;18.40;93.20;;;;;;5056287;28;20590;-69
2022/10/05 11:15:19;;;;;;;3.83;1.70;;;18.40;93.20;;;;;;5055550;28;20032;-69
2022/10/05 11:17:46;;;;;;;1.85;1.55;;;18.40;93.20;;;;;;5055535;28;20075;-69
2022/10/05 11:20:58;;;;;;;5.38;1.80;;;18.40;93.10;;;;;;5055935;28;20029;-69
2022/10/05 11:23:42;;;;;;;4.60;2.53;;;18.40;93.10;;;;;;5055467;28;20025;-72
2022/10/05 11:26:24;;;;;;;2.30;1.67;;;18.50;92.80;;;;;;5056070;28;20029;-71
2022/10/05 11:29:24;;;;;;;2.87;1.57;;;18.50;92.90;;;;;;5055253;28;20039;-71
2022/10/05 11:32:29;;;;;;;4.05;1.60;;;18.50;92.90;;;;;;5055054;28;20021;-69
2022/10/05 11:35:14;;;;;;;1.73;1.40;;;18.50;92.80;;;;;;5052683;28;20037;-70
2022/10/05 11:37:43;;;;;;;2.92;2.05;;;18.50;92.80;;;;;;5055325;28;20033;-70
2022/10/05 11:40:08;;;;;;;3.08;2.08;;;18.40;92.70;;;;;;5056935;28;20033;-70
2022/10/05 11:42:43;;;;;;;2.75;1.92;;;18.50;92.70;;;;;;5055977;28;20040;-71
2022/10/05 11:45:20;;;;;;;4.45;2.40;;;18.50;92.60;;;;;;5055334;28;20037;-72
2022/10/05 11:48:00;;;;;;;3.42;2.50;;;18.40;92.60;;;;;;5055871;28;20033;-68
2022/10/05 11:50:32;;;;;;;2.22;1.80;;;18.40;92.50;;;;;;5053191;28;20032;-68
2022/10/05 11:53:12;;;;;;;2.55;1.92;;;18.40;92.50;;;;;;5055247;28;20144;-69
2022/10/05 11:55:43;;;;;;;4.32;1.98;;;18.30;92.50;;;;;;5052957;28;20060;-76
2022/10/05 11:58:25;;;;;;;2.70;1.70;;;18.30;92.40;;;;;;5053731;28;20036;-74
2022/10/05 12:00:53;;;;;;;1.50;1.40;;;18.40;92.50;;;;;;5054697;28;20381;-74
2022/10/05 12:03:35;;;;;;;5.07;1.92;;;18.40;92.60;;;;;;5055603;28;20479;-75
2022/10/05 12:06:27;;;;;;;2.45;1.52;;;18.40;92.50;;;;;;5052393;28;20139;-75
2022/10/05 12:09:20;;;;;;;1.80;1.48;;;18.40;92.50;;;;;;5052133;28;20448;-73
2022/10/05 12:11:57;;;;;;;1.52;1.40;;;18.50;92.50;;;;;;5053289;28;20032;-72
2022/10/05 12:14:46;;;;;;;5.03;2.20;;;18.50;92.40;;;;;;5055936;28;20036;-72
2022/10/05 12:17:19;;;;;;;2.05;1.70;;;18.50;92.40;;;;;;5052197;28;20060;-75
2022/10/05 12:19:49;;;;;;;2.63;1.65;;;18.50;92.30;;;;;;5054577;28;20377;-73
2022/10/05 12:22:26;;;;;;;6.53;1.92;;;18.50;92.40;;;;;;5055525;28;20037;-74
2022/10/05 12:25:03;;;;;;;2.58;2.10;;;18.50;92.30;;;;;;5055347;28;20123;-74
2022/10/05 12:27:36;;;;;;;4.07;2.00;;;18.50;92.30;;;;;;5054324;28;20025;-74
2022/10/05 12:30:15;;;;;;;4.15;1.90;;;18.50;92.20;;;;;;5055110;28;20041;-74
2022/10/05 12:32:57;;;;;;;3.05;2.03;;;18.50;92.30;;;;;;5054848;28;20051;-74
2022/10/05 12:35:54;;;;;;;4.90;1.77;;;18.50;92.20;;;;;;5055081;28;20029;-74
2022/10/05 12:38:38;;;;;;;1.83;1.55;;;18.50;92.20;;;;;;5054595;28;20039;-74
2022/10/05 12:41:13;;;;;;;4.13;1.90;;;18.40;92.20;;;;;;5054548;28;20029;-74
2022/10/05 12:43:52;;;;;;;4.20;1.10;;;18.50;92.20;;;;;;5054444;28;20028;-74
2022/10/05 12:46:38;;;;;;;1.95;1.45;;;18.50;92.20;;;;;;5055058;28;20125;-74
2022/10/05 12:49:24;;;;;;;1.95;1.35;;;18.50;92.10;;;;;;5053936;28;20036;-74
2022/10/05 12:52:04;;;;;;;1.23;1.13;;;18.50;92.20;;;;;;5055012;28;20121;-74
2022/10/05 12:54:45;;;;;;;4.20;1.45;;;18.60;92.20;;;;;;5052754;28;20107;-73
2022/10/05 12:57:19;;;;;;;2.53;1.58;;;18.50;92.20;;;;;;5053898;28;20438;-74
2022/10/05 12:59:58;;;;;;;3.55;1.60;;;18.50;92.10;;;;;;5053955;28;20029;-74
2022/10/05 13:02:42;;;;;;;5.95;2.80;;;18.60;92.20;;;;;;5053381;28;20502;-74
2022/10/05 13:05:11;;;;;;;1.50;1.40;;;18.60;92.20;;;;;;5054166;28;20123;-74
2022/10/05 13:08:07;;;;;;;2.38;1.52;;;18.60;92.10;;;;;;5053949;28;20128;-74
2022/10/05 13:10:47;;;;;;;1.98;1.67;;;18.70;92.10;;;;;;5053846;28;20025;-74
2022/10/05 13:13:20;;;;;;;2.45;1.90;;;18.70;92.00;;;;;;5053968;28;20040;-74
2022/10/05 13:16:16;;;;;;;4.75;1.50;;;18.70;92.10;;;;;;5052907;28;20025;-74
2022/10/05 13:18:56;;;;;;;1.98;1.30;;;18.70;92.10;;;;;;5053872;28;20060;-74
2022/10/05 13:21:57;;;;;;;1.70;1.20;;;18.60;92.00;;;;;;5053858;28;20397;-74
2022/10/05 13:24:28;;;;;;;2.17;1.63;;;18.60;92.10;;;;;;5042947;28;20033;-74
2022/10/05 13:27:02;;;;;;;3.03;1.75;;;18.60;92.00;;;;;;5053602;28;20419;-74
2022/10/05 13:29:32;;;;;;;3.67;1.92;;;18.60;92.10;;;;;;5053864;28;20033;-74
2022/10/05 13:32:21;;;;;;;3.75;1.88;;;18.60;92.00;;;;;;5053963;28;20480;-74
2022/10/05 13:35:02;;;;;;;2.42;1.50;;;18.60;92.10;;;;;;5053785;28;20055;-74
2022/10/05 13:37:48;;;;;;;8.02;2.22;;;18.60;92.20;;;;;;5053900;28;20037;-74
2022/10/05 13:40:36;;;;;;;2.67;1.95;;;18.60;92.20;;;;;;5053481;28;20035;-74
2022/10/05 13:43:13;;;;;;;2.28;1.67;;;18.60;92.20;;;;;;5052806;28;20037;-74
2022/10/05 13:45:51;;;;;;;2.30;1.58;;;18.50;92.20;;;;;;5054219;28;20041;-74
2022/10/05 13:48:54;;;;;;;3.28;1.98;;;18.60;92.40;;;;;;5053472;28;20096;-74
2022/10/05 13:51:36;;;;;;;3.00;1.70;;;18.60;92.40;;;;;;5052751;28;20086;-74
2022/10/05 13:54:17;;;;;;;5.65;1.70;;;18.50;92.50;;;;;;5054869;28;20069;-74
2022/10/05 13:56:47;;;;;;;1.42;1.30;;;18.60;92.60;;;;;;5053048;28;20049;-74
2022/10/05 13:59:34;;;;;;;3.20;2.08;;;18.70;92.60;;;;;;5052818;28;20430;-74
2022/10/05 14:02:15;;;;;;;1.50;1.40;;;18.70;92.60;;;;;;5054439;28;20033;-74
2022/10/05 14:04:43;;;;;;;2.35;1.92;;;18.70;92.60;;;;;;5052322;28;20482;-74
2022/10/05 14:07:36;;;;;;;3.25;1.83;;;18.70;92.60;;;;;;5053040;28;20033;-74
2022/10/05 14:10:09;;;;;;;5.03;1.70;;;18.70;92.60;;;;;;5053074;28;20468;-74
2022/10/05 14:12:44;;;;;;;3.47;2.03;;;18.70;92.70;;;;;;5052461;28;20032;-74
2022/10/05 14:15:26;;;;;;;3.35;2.00;;;18.80;92.80;;;;;;5056342;28;20072;-74
2022/10/05 14:17:52;;;;;;;3.17;1.70;;;18.80;92.80;;;;;;5056797;28;20044;-74